sensor_id;sensor_type;location;lat;lon;timestamp;P1;durP1;ratioP1;P2;durP2;ratioP2
14592;SDS011;7383;52.354;9.756;2023-02-26T03:36:46;1.05;;;1.05;;
14592;SDS011;7383;52.354;9.756;2023-02-26T03:39:19;1.15;;;0.90;;
14592;SDS011;7383;52.354;9.756;2023-02-26T03:41:51;1.35;;;1.20;;
14592;SDS011;7383;52.354;9.756;2023-02-26T03:44:23;1.08;;;1.00;;
14592;SDS011;7383;52.354;9.756;2023-02-26T03:46:54;1.33;;;1.20;;
14592;SDS011;7383;52.354;9.756;2023-02-26T03:49:26;1.73;;;1.15;;
14592;SDS011;7383;52.354;9.756;2023-02-26T03:51:57;1.55;;;1.15;;
14592;SDS011;7383;52.354;9.756;2023-02-26T03:54:26;2.38;;;1.10;;
14592;SDS011;7383;52.354;9.756;2023-02-26T03:56:56;0.98;;;0.93;;
14592;SDS011;7383;52.354;9.756;2023-02-26T03:59:22;1.98;;;1.20;;
14592;SDS011;7383;52.354;9.756;2023-02-26T04:01:51;1.25;;;0.90;;
14592;SDS011;7383;52.354;9.756;2023-02-26T04:04:22;1.38;;;1.27;;
14592;SDS011;7383;52.354;9.756;2023-02-26T04:06:52;1.38;;;0.98;;
14592;SDS011;7383;52.354;9.756;2023-02-26T04:09:21;1.88;;;1.60;;
14592;SDS011;7383;52.354;9.756;2023-02-26T04:11:48;1.98;;;1.20;;
14592;SDS011;7383;52.354;9.756;2023-02-26T04:14:17;0.82;;;0.82;;
14592;SDS011;7383;52.354;9.756;2023-02-26T04:16:43;1.00;;;1.00;;
14592;SDS011;7383;52.354;9.756;2023-02-26T04:19:11;1.20;;;0.80;;
14592;SDS011;7383;52.354;9.756;2023-02-26T04:21:38;1.73;;;1.02;;
14592;SDS011;7383;52.354;9.756;2023-02-26T04:24:05;1.67;;;1.05;;
14592;SDS011;7383;52.354;9.756;2023-02-26T04:26:34;1.45;;;1.25;;
14592;SDS011;7383;52.354;9.756;2023-02-26T04:29:01;1.13;;;1.02;;
14592;SDS011;7383;52.354;9.756;2023-02-26T04:31:33;2.03;;;0.90;;
14592;SDS011;7383;52.354;9.756;2023-02-26T04:34:00;1.15;;;1.05;;
14592;SDS011;7383;52.354;9.756;2023-02-26T04:36:28;1.30;;;1.20;;
14592;SDS011;7383;52.354;9.756;2023-02-26T04:38:55;1.95;;;1.08;;
14592;SDS011;7383;52.354;9.756;2023-02-26T04:41:21;1.38;;;1.10;;
14592;SDS011;7383;52.354;9.756;2023-02-26T04:43:49;1.50;;;1.33;;
14592;SDS011;7383;52.354;9.756;2023-02-26T04:46:16;1.42;;;1.10;;
14592;SDS011;7383;52.354;9.756;2023-02-26T04:48:43;0.82;;;0.82;;
14592;SDS011;7383;52.354;9.756;2023-02-26T04:51:09;1.33;;;1.00;;
14592;SDS011;7383;52.354;9.756;2023-02-26T04:53:36;0.95;;;0.95;;
14592;SDS011;7383;52.354;9.756;2023-02-26T04:56:02;2.08;;;1.02;;
14592;SDS011;7383;52.354;9.756;2023-02-26T04:58:29;1.73;;;1.35;;
14592;SDS011;7383;52.354;9.756;2023-02-26T05:01:01;1.10;;;1.05;;
14592;SDS011;7383;52.354;9.756;2023-02-26T05:03:28;0.88;;;0.88;;
14592;SDS011;7383;52.354;9.756;2023-02-26T05:05:54;1.20;;;1.10;;
14592;SDS011;7383;52.354;9.756;2023-02-26T05:08:21;1.45;;;1.02;;
14592;SDS011;7383;52.354;9.756;2023-02-26T05:10:49;1.42;;;0.95;;
14592;SDS011;7383;52.354;9.756;2023-02-26T05:13:16;1.05;;;0.95;;
14592;SDS011;7383;52.354;9.756;2023-02-26T05:15:42;1.92;;;1.00;;
14592;SDS011;7383;52.354;9.756;2023-02-26T05:18:10;1.23;;;1.08;;
14592;SDS011;7383;52.354;9.756;2023-02-26T05:20:37;0.80;;;0.70;;
14592;SDS011;7383;52.354;9.756;2023-02-26T05:23:05;0.68;;;0.68;;
14592;SDS011;7383;52.354;9.756;2023-02-26T05:25:32;0.82;;;0.82;;
14592;SDS011;7383;52.354;9.756;2023-02-26T05:27:58;0.82;;;0.77;;
14592;SDS011;7383;52.354;9.756;2023-02-26T05:30:25;1.40;;;1.23;;
14592;SDS011;7383;52.354;9.756;2023-02-26T05:32:51;1.17;;;1.02;;
14592;SDS011;7383;52.354;9.756;2023-02-26T05:35:20;0.73;;;0.73;;
14592;SDS011;7383;52.354;9.756;2023-02-26T05:37:46;0.70;;;0.70;;
14592;SDS011;7383;52.354;9.756;2023-02-26T05:40:13;1.25;;;0.82;;
14592;SDS011;7383;52.354;9.756;2023-02-26T05:42:39;1.13;;;1.02;;
14592;SDS011;7383;52.354;9.756;2023-02-26T05:45:07;1.83;;;1.00;;
14592;SDS011;7383;52.354;9.756;2023-02-26T05:47:34;1.40;;;0.80;;
14592;SDS011;7383;52.354;9.756;2023-02-26T05:50:01;1.63;;;1.10;;
14592;SDS011;7383;52.354;9.756;2023-02-26T05:52:29;0.98;;;0.93;;
14592;SDS011;7383;52.354;9.756;2023-02-26T05:54:55;1.35;;;0.93;;
14592;SDS011;7383;52.354;9.756;2023-02-26T05:57:24;1.58;;;0.93;;
14592;SDS011;7383;52.354;9.756;2023-02-26T05:59:51;1.00;;;1.00;;
14592;SDS011;7383;52.354;9.756;2023-02-26T06:02:17;0.95;;;0.77;;
14592;SDS011;7383;52.354;9.756;2023-02-26T06:04:44;0.93;;;0.82;;
14592;SDS011;7383;52.354;9.756;2023-02-26T06:07:14;1.55;;;1.00;;
14592;SDS011;7383;52.354;9.756;2023-02-26T06:09:45;1.60;;;1.00;;
14592;SDS011;7383;52.354;9.756;2023-02-26T06:12:11;1.67;;;0.98;;
14592;SDS011;7383;52.354;9.756;2023-02-26T06:14:38;1.00;;;0.75;;
14592;SDS011;7383;52.354;9.756;2023-02-26T06:17:04;0.82;;;0.60;;
14592;SDS011;7383;52.354;9.756;2023-02-26T06:19:32;0.98;;;0.70;;
14592;SDS011;7383;52.354;9.756;2023-02-26T06:22:00;1.13;;;0.65;;
14592;SDS011;7383;52.354;9.756;2023-02-26T06:24:27;1.85;;;1.00;;
14592;SDS011;7383;52.354;9.756;2023-02-26T06:26:55;1.83;;;0.80;;
14592;SDS011;7383;52.354;9.756;2023-02-26T06:29:21;0.85;;;0.82;;
14592;SDS011;7383;52.354;9.756;2023-02-26T06:31:48;1.00;;;0.90;;
14592;SDS011;7383;52.354;9.756;2023-02-26T06:34:14;1.95;;;0.70;;
14592;SDS011;7383;52.354;9.756;2023-02-26T06:36:41;0.98;;;0.85;;
14592;SDS011;7383;52.354;9.756;2023-02-26T06:39:08;1.48;;;0.68;;
14592;SDS011;7383;52.354;9.756;2023-02-26T06:41:36;1.00;;;0.90;;
14592;SDS011;7383;52.354;9.756;2023-02-26T06:44:04;0.80;;;0.77;;
14592;SDS011;7383;52.354;9.756;2023-02-26T06:46:31;1.35;;;0.70;;
14592;SDS011;7383;52.354;9.756;2023-02-26T06:48:58;1.83;;;1.10;;
14592;SDS011;7383;52.354;9.756;2023-02-26T06:51:24;1.63;;;0.80;;
14592;SDS011;7383;52.354;9.756;2023-02-26T06:53:53;0.80;;;0.80;;
14592;SDS011;7383;52.354;9.756;2023-02-26T06:56:20;1.17;;;0.82;;
14592;SDS011;7383;52.354;9.756;2023-02-26T06:58:46;0.75;;;0.73;;
14592;SDS011;7383;52.354;9.756;2023-02-26T07:01:15;1.08;;;0.98;;
14592;SDS011;7383;52.354;9.756;2023-02-26T07:03:41;0.85;;;0.70;;
14592;SDS011;7383;52.354;9.756;2023-02-26T07:06:10;1.10;;;0.90;;
14592;SDS011;7383;52.354;9.756;2023-02-26T07:08:44;1.65;;;1.30;;
14592;SDS011;7383;52.354;9.756;2023-02-26T07:11:10;1.63;;;0.98;;
14592;SDS011;7383;52.354;9.756;2023-02-26T07:13:38;1.25;;;1.08;;
14592;SDS011;7383;52.354;9.756;2023-02-26T07:16:05;1.42;;;0.90;;
14592;SDS011;7383;52.354;9.756;2023-02-26T07:18:34;1.95;;;1.10;;
14592;SDS011;7383;52.354;9.756;2023-02-26T07:21:03;1.40;;;1.30;;
14592;SDS011;7383;52.354;9.756;2023-02-26T07:23:30;1.38;;;1.20;;
14592;SDS011;7383;52.354;9.756;2023-02-26T07:25:57;1.02;;;0.90;;
14592;SDS011;7383;52.354;9.756;2023-02-26T07:28:23;1.45;;;0.75;;
14592;SDS011;7383;52.354;9.756;2023-02-26T07:30:52;1.27;;;1.17;;
14592;SDS011;7383;52.354;9.756;2023-02-26T07:33:19;1.60;;;0.95;;
14592;SDS011;7383;52.354;9.756;2023-02-26T07:35:47;1.33;;;1.00;;
14592;SDS011;7383;52.354;9.756;2023-02-26T07:38:14;1.30;;;0.90;;
14592;SDS011;7383;52.354;9.756;2023-02-26T07:40:40;1.40;;;1.30;;
14592;SDS011;7383;52.354;9.756;2023-02-26T07:43:12;0.70;;;0.70;;
14592;SDS011;7383;52.354;9.756;2023-02-26T07:45:39;1.50;;;1.00;;
14592;SDS011;7383;52.354;9.756;2023-02-26T07:48:05;1.52;;;0.88;;
14592;SDS011;7383;52.354;9.756;2023-02-26T07:50:36;1.35;;;1.00;;
14592;SDS011;7383;52.354;9.756;2023-02-26T07:53:06;0.82;;;0.80;;
14592;SDS011;7383;52.354;9.756;2023-02-26T07:55:33;1.83;;;1.17;;
14592;SDS011;7383;52.354;9.756;2023-02-26T07:57:59;1.10;;;1.00;;
14592;SDS011;7383;52.354;9.756;2023-02-26T08:00:26;0.98;;;0.98;;
14592;SDS011;7383;52.354;9.756;2023-02-26T08:02:54;0.88;;;0.85;;
14592;SDS011;7383;52.354;9.756;2023-02-26T08:05:20;1.13;;;0.82;;
14592;SDS011;7383;52.354;9.756;2023-02-26T08:07:47;1.20;;;1.10;;
14592;SDS011;7383;52.354;9.756;2023-02-26T08:10:15;1.25;;;1.15;;
14592;SDS011;7383;52.354;9.756;2023-02-26T08:12:42;1.00;;;0.93;;
14592;SDS011;7383;52.354;9.756;2023-02-26T08:15:10;1.38;;;0.80;;
14592;SDS011;7383;52.354;9.756;2023-02-26T08:17:38;1.45;;;1.35;;
14592;SDS011;7383;52.354;9.756;2023-02-26T08:20:05;2.35;;;1.30;;
14592;SDS011;7383;52.354;9.756;2023-02-26T08:22:33;2.05;;;1.20;;
14592;SDS011;7383;52.354;9.756;2023-02-26T08:24:59;1.08;;;0.93;;
14592;SDS011;7383;52.354;9.756;2023-02-26T08:27:27;1.33;;;1.00;;
14592;SDS011;7383;52.354;9.756;2023-02-26T08:29:54;1.27;;;1.00;;
14592;SDS011;7383;52.354;9.756;2023-02-26T08:32:20;1.35;;;0.77;;
14592;SDS011;7383;52.354;9.756;2023-02-26T08:34:48;1.23;;;1.13;;
14592;SDS011;7383;52.354;9.756;2023-02-26T08:37:14;1.55;;;0.82;;
14592;SDS011;7383;52.354;9.756;2023-02-26T08:39:41;1.38;;;0.95;;
14592;SDS011;7383;52.354;9.756;2023-02-26T08:42:08;1.08;;;0.75;;
14592;SDS011;7383;52.354;9.756;2023-02-26T08:44:41;1.25;;;0.80;;
14592;SDS011;7383;52.354;9.756;2023-02-26T08:47:10;1.20;;;0.88;;
14592;SDS011;7383;52.354;9.756;2023-02-26T08:49:43;0.95;;;0.80;;
14592;SDS011;7383;52.354;9.756;2023-02-26T08:52:11;0.55;;;0.55;;
14592;SDS011;7383;52.354;9.756;2023-02-26T08:54:39;1.05;;;0.70;;
14592;SDS011;7383;52.354;9.756;2023-02-26T08:57:06;1.02;;;0.93;;
14592;SDS011;7383;52.354;9.756;2023-02-26T08:59:33;1.73;;;0.80;;
14592;SDS011;7383;52.354;9.756;2023-02-26T09:02:01;1.50;;;0.80;;
14592;SDS011;7383;52.354;9.756;2023-02-26T09:04:27;1.30;;;0.93;;
14592;SDS011;7383;52.354;9.756;2023-02-26T09:06:56;1.30;;;1.20;;
14592;SDS011;7383;52.354;9.756;2023-02-26T09:09:22;1.00;;;0.60;;
14592;SDS011;7383;52.354;9.756;2023-02-26T09:11:49;1.08;;;0.80;;
14592;SDS011;7383;52.354;9.756;2023-02-26T09:14:23;0.90;;;0.90;;
14592;SDS011;7383;52.354;9.756;2023-02-26T09:16:49;0.85;;;0.60;;
14592;SDS011;7383;52.354;9.756;2023-02-26T09:19:17;1.25;;;1.00;;
14592;SDS011;7383;52.354;9.756;2023-02-26T09:21:50;1.13;;;1.00;;
14592;SDS011;7383;52.354;9.756;2023-02-26T09:24:31;1.40;;;1.00;;
14592;SDS011;7383;52.354;9.756;2023-02-26T09:27:04;0.82;;;0.63;;
14592;SDS011;7383;52.354;9.756;2023-02-26T09:29:32;1.45;;;0.75;;
14592;SDS011;7383;52.354;9.756;2023-02-26T09:31:58;1.38;;;1.02;;
14592;SDS011;7383;52.354;9.756;2023-02-26T09:34:34;1.23;;;0.70;;
14592;SDS011;7383;52.354;9.756;2023-02-26T09:37:01;0.82;;;0.82;;
14592;SDS011;7383;52.354;9.756;2023-02-26T09:39:28;1.55;;;0.63;;
14592;SDS011;7383;52.354;9.756;2023-02-26T09:41:55;0.75;;;0.75;;
14592;SDS011;7383;52.354;9.756;2023-02-26T09:44:26;1.75;;;0.75;;
14592;SDS011;7383;52.354;9.756;2023-02-26T09:46:56;0.70;;;0.70;;
14592;SDS011;7383;52.354;9.756;2023-02-26T09:49:33;1.38;;;0.70;;
14592;SDS011;7383;52.354;9.756;2023-02-26T09:52:18;1.35;;;0.70;;
14592;SDS011;7383;52.354;9.756;2023-02-26T09:54:53;1.10;;;0.90;;
14592;SDS011;7383;52.354;9.756;2023-02-26T09:57:26;0.77;;;0.55;;
14592;SDS011;7383;52.354;9.756;2023-02-26T09:59:56;0.63;;;0.63;;
14592;SDS011;7383;52.354;9.756;2023-02-26T10:02:36;0.93;;;0.70;;
14592;SDS011;7383;52.354;9.756;2023-02-26T10:05:16;0.70;;;0.70;;
14592;SDS011;7383;52.354;9.756;2023-02-26T10:07:46;0.70;;;0.55;;
14592;SDS011;7383;52.354;9.756;2023-02-26T10:10:22;1.05;;;0.80;;
14592;SDS011;7383;52.354;9.756;2023-02-26T10:12:58;0.57;;;0.50;;
14592;SDS011;7383;52.354;9.756;2023-02-26T10:15:26;0.52;;;0.52;;
14592;SDS011;7383;52.354;9.756;2023-02-26T10:18:00;0.80;;;0.55;;
14592;SDS011;7383;52.354;9.756;2023-02-26T10:23:56;0.60;;;0.50;;
14592;SDS011;7383;52.354;9.756;2023-02-26T10:26:39;0.47;;;0.47;;
14592;SDS011;7383;52.354;9.756;2023-02-26T10:29:13;0.57;;;0.40;;
14592;SDS011;7383;52.354;9.756;2023-02-26T10:31:49;0.50;;;0.50;;
14592;SDS011;7383;52.354;9.756;2023-02-26T10:34:24;1.08;;;0.75;;
14592;SDS011;7383;52.354;9.756;2023-02-26T10:36:57;0.60;;;0.60;;
14592;SDS011;7383;52.354;9.756;2023-02-26T10:39:34;0.82;;;0.63;;
14592;SDS011;7383;52.354;9.756;2023-02-26T10:42:09;0.57;;;0.50;;
14592;SDS011;7383;52.354;9.756;2023-02-26T10:44:43;0.50;;;0.50;;
14592;SDS011;7383;52.354;9.756;2023-02-26T10:47:18;0.45;;;0.40;;
14592;SDS011;7383;52.354;9.756;2023-02-26T10:49:54;1.70;;;0.90;;
14592;SDS011;7383;52.354;9.756;2023-02-26T10:52:25;1.08;;;0.45;;
14592;SDS011;7383;52.354;9.756;2023-02-26T10:55:02;0.80;;;0.70;;
14592;SDS011;7383;52.354;9.756;2023-02-26T10:57:46;1.55;;;0.82;;
14592;SDS011;7383;52.354;9.756;2023-02-26T11:00:18;0.70;;;0.60;;
14592;SDS011;7383;52.354;9.756;2023-02-26T11:02:48;1.05;;;0.80;;
14592;SDS011;7383;52.354;9.756;2023-02-26T11:05:18;0.47;;;0.47;;
14592;SDS011;7383;52.354;9.756;2023-02-26T11:07:50;0.60;;;0.60;;
14592;SDS011;7383;52.354;9.756;2023-02-26T11:10:22;0.80;;;0.63;;
14592;SDS011;7383;52.354;9.756;2023-02-26T11:15:48;0.85;;;0.70;;
14592;SDS011;7383;52.354;9.756;2023-02-26T11:18:23;0.93;;;0.90;;
14592;SDS011;7383;52.354;9.756;2023-02-26T11:20:55;0.95;;;0.40;;
14592;SDS011;7383;52.354;9.756;2023-02-26T11:23:25;0.40;;;0.40;;
14592;SDS011;7383;52.354;9.756;2023-02-26T11:25:58;0.63;;;0.50;;
14592;SDS011;7383;52.354;9.756;2023-02-26T11:28:32;0.80;;;0.50;;
14592;SDS011;7383;52.354;9.756;2023-02-26T11:31:04;0.40;;;0.40;;
14592;SDS011;7383;52.354;9.756;2023-02-26T11:33:36;0.52;;;0.47;;
14592;SDS011;7383;52.354;9.756;2023-02-26T11:36:11;0.80;;;0.80;;
14592;SDS011;7383;52.354;9.756;2023-02-26T11:38:40;0.77;;;0.77;;
14592;SDS011;7383;52.354;9.756;2023-02-26T11:41:16;0.63;;;0.63;;
14592;SDS011;7383;52.354;9.756;2023-02-26T11:43:44;0.60;;;0.60;;
14592;SDS011;7383;52.354;9.756;2023-02-26T11:46:14;0.40;;;0.40;;
14592;SDS011;7383;52.354;9.756;2023-02-26T11:48:51;1.10;;;0.60;;
14592;SDS011;7383;52.354;9.756;2023-02-26T11:51:32;0.90;;;0.55;;
14592;SDS011;7383;52.354;9.756;2023-02-26T12:02:49;0.40;;;0.40;;
14592;SDS011;7383;52.354;9.756;2023-02-26T12:20:28;0.50;;;0.50;;
14592;SDS011;7383;52.354;9.756;2023-02-26T12:23:06;0.30;;;0.30;;
14592;SDS011;7383;52.354;9.756;2023-02-26T12:28:28;0.77;;;0.75;;
14592;SDS011;7383;52.354;9.756;2023-02-26T12:31:28;0.73;;;0.60;;
14592;SDS011;7383;52.354;9.756;2023-02-26T12:34:24;0.57;;;0.47;;
14592;SDS011;7383;52.354;9.756;2023-02-26T12:37:16;0.50;;;0.50;;
14592;SDS011;7383;52.354;9.756;2023-02-26T12:40:02;0.70;;;0.70;;
14592;SDS011;7383;52.354;9.756;2023-02-26T12:42:56;0.40;;;0.40;;
14592;SDS011;7383;52.354;9.756;2023-02-26T12:45:36;0.30;;;0.30;;
14592;SDS011;7383;52.354;9.756;2023-02-26T12:48:39;0.73;;;0.60;;
14592;SDS011;7383;52.354;9.756;2023-02-26T12:51:22;0.60;;;0.60;;
14592;SDS011;7383;52.354;9.756;2023-02-26T12:54:09;0.57;;;0.57;;
14592;SDS011;7383;52.354;9.756;2023-02-26T12:57:11;0.70;;;0.70;;
14592;SDS011;7383;52.354;9.756;2023-02-26T13:03:59;0.70;;;0.70;;
14592;SDS011;7383;52.354;9.756;2023-02-26T13:07:15;1.48;;;1.38;;
14592;SDS011;7383;52.354;9.756;2023-02-26T13:10:17;2.40;;;2.22;;
14592;SDS011;7383;52.354;9.756;2023-02-26T13:13:43;1.30;;;1.20;;
14592;SDS011;7383;52.354;9.756;2023-02-26T13:16:38;2.08;;;0.82;;
14592;SDS011;7383;52.354;9.756;2023-02-26T13:19:32;0.88;;;0.88;;
14592;SDS011;7383;52.354;9.756;2023-02-26T13:22:34;0.50;;;0.50;;
14592;SDS011;7383;52.354;9.756;2023-02-26T13:25:18;0.80;;;0.80;;
14592;SDS011;7383;52.354;9.756;2023-02-26T13:27:50;0.40;;;0.40;;
14592;SDS011;7383;52.354;9.756;2023-02-26T13:30:24;0.50;;;0.50;;
14592;SDS011;7383;52.354;9.756;2023-02-26T13:32:56;0.47;;;0.43;;
14592;SDS011;7383;52.354;9.756;2023-02-26T13:35:40;0.73;;;0.73;;
14592;SDS011;7383;52.354;9.756;2023-02-26T13:38:16;0.50;;;0.50;;
14592;SDS011;7383;52.354;9.756;2023-02-26T13:40:55;0.43;;;0.43;;
14592;SDS011;7383;52.354;9.756;2023-02-26T13:43:35;0.82;;;0.63;;
14592;SDS011;7383;52.354;9.756;2023-02-26T13:46:16;0.32;;;0.30;;
14592;SDS011;7383;52.354;9.756;2023-02-26T13:48:51;0.93;;;0.50;;
14592;SDS011;7383;52.354;9.756;2023-02-26T13:51:27;0.50;;;0.47;;
14592;SDS011;7383;52.354;9.756;2023-02-26T13:54:00;0.45;;;0.40;;
14592;SDS011;7383;52.354;9.756;2023-02-26T13:56:47;0.60;;;0.60;;
14592;SDS011;7383;52.354;9.756;2023-02-26T13:59:30;0.38;;;0.38;;
14592;SDS011;7383;52.354;9.756;2023-02-26T14:02:15;0.35;;;0.35;;
14592;SDS011;7383;52.354;9.756;2023-02-26T14:05:26;0.60;;;0.50;;
14592;SDS011;7383;52.354;9.756;2023-02-26T14:08:09;0.73;;;0.60;;
14592;SDS011;7383;52.354;9.756;2023-02-26T14:10:52;0.50;;;0.50;;
14592;SDS011;7383;52.354;9.756;2023-02-26T14:13:22;0.52;;;0.52;;
14592;SDS011;7383;52.354;9.756;2023-02-26T14:15:58;0.40;;;0.30;;
14592;SDS011;7383;52.354;9.756;2023-02-26T14:18:30;0.50;;;0.43;;
14592;SDS011;7383;52.354;9.756;2023-02-26T14:24:12;0.52;;;0.52;;
14592;SDS011;7383;52.354;9.756;2023-02-26T14:27:20;0.60;;;0.55;;
14592;SDS011;7383;52.354;9.756;2023-02-26T14:29:57;0.50;;;0.50;;
14592;SDS011;7383;52.354;9.756;2023-02-26T14:32:44;0.50;;;0.50;;
14592;SDS011;7383;52.354;9.756;2023-02-26T14:35:12;0.50;;;0.50;;
14592;SDS011;7383;52.354;9.756;2023-02-26T14:37:46;0.50;;;0.50;;
14592;SDS011;7383;52.354;9.756;2023-02-26T14:40:21;0.47;;;0.47;;
14592;SDS011;7383;52.354;9.756;2023-02-26T14:42:50;0.55;;;0.55;;
14592;SDS011;7383;52.354;9.756;2023-02-26T14:45:27;0.60;;;0.60;;
14592;SDS011;7383;52.354;9.756;2023-02-26T14:47:57;0.57;;;0.57;;
14592;SDS011;7383;52.354;9.756;2023-02-26T14:50:28;0.60;;;0.60;;
14592;SDS011;7383;52.354;9.756;2023-02-26T14:53:17;0.70;;;0.70;;
14592;SDS011;7383;52.354;9.756;2023-02-26T14:56:14;0.82;;;0.80;;
14592;SDS011;7383;52.354;9.756;2023-02-26T14:58:56;0.60;;;0.60;;
14592;SDS011;7383;52.354;9.756;2023-02-26T15:01:39;1.02;;;0.90;;
14592;SDS011;7383;52.354;9.756;2023-02-26T15:07:28;0.52;;;0.50;;
14592;SDS011;7383;52.354;9.756;2023-02-26T15:10:19;0.50;;;0.47;;
14592;SDS011;7383;52.354;9.756;2023-02-26T15:13:05;0.50;;;0.50;;
14592;SDS011;7383;52.354;9.756;2023-02-26T15:15:47;0.60;;;0.60;;
14592;SDS011;7383;52.354;9.756;2023-02-26T15:18:24;0.70;;;0.63;;
14592;SDS011;7383;52.354;9.756;2023-02-26T15:21:19;1.48;;;0.60;;
14592;SDS011;7383;52.354;9.756;2023-02-26T15:24:13;0.90;;;0.65;;
14592;SDS011;7383;52.354;9.756;2023-02-26T15:26:44;0.60;;;0.60;;
14592;SDS011;7383;52.354;9.756;2023-02-26T15:29:24;0.50;;;0.50;;
14592;SDS011;7383;52.354;9.756;2023-02-26T15:31:54;0.60;;;0.60;;
14592;SDS011;7383;52.354;9.756;2023-02-26T15:34:40;0.57;;;0.45;;
14592;SDS011;7383;52.354;9.756;2023-02-26T15:37:20;0.75;;;0.75;;
14592;SDS011;7383;52.354;9.756;2023-02-26T15:40:02;0.40;;;0.40;;
14592;SDS011;7383;52.354;9.756;2023-02-26T15:42:49;0.77;;;0.77;;
14592;SDS011;7383;52.354;9.756;2023-02-26T15:45:39;0.60;;;0.60;;
14592;SDS011;7383;52.354;9.756;2023-02-26T15:48:25;0.50;;;0.50;;
14592;SDS011;7383;52.354;9.756;2023-02-26T15:50:59;0.57;;;0.55;;
14592;SDS011;7383;52.354;9.756;2023-02-26T15:53:42;0.32;;;0.32;;
14592;SDS011;7383;52.354;9.756;2023-02-26T15:56:14;0.90;;;0.80;;
14592;SDS011;7383;52.354;9.756;2023-02-26T15:58:55;0.60;;;0.60;;
14592;SDS011;7383;52.354;9.756;2023-02-26T16:01:26;0.63;;;0.63;;
14592;SDS011;7383;52.354;9.756;2023-02-26T16:04:06;0.45;;;0.45;;
14592;SDS011;7383;52.354;9.756;2023-02-26T16:06:41;0.60;;;0.60;;
14592;SDS011;7383;52.354;9.756;2023-02-26T16:09:23;0.60;;;0.50;;
14592;SDS011;7383;52.354;9.756;2023-02-26T16:12:06;0.70;;;0.47;;
14592;SDS011;7383;52.354;9.756;2023-02-26T16:14:38;0.45;;;0.45;;
14592;SDS011;7383;52.354;9.756;2023-02-26T16:17:10;0.85;;;0.60;;
14592;SDS011;7383;52.354;9.756;2023-02-26T16:19:46;0.75;;;0.55;;
14592;SDS011;7383;52.354;9.756;2023-02-26T16:22:55;0.55;;;0.40;;
14592;SDS011;7383;52.354;9.756;2023-02-26T16:25:27;0.65;;;0.60;;
14592;SDS011;7383;52.354;9.756;2023-02-26T16:27:57;0.63;;;0.63;;
14592;SDS011;7383;52.354;9.756;2023-02-26T16:30:29;0.73;;;0.70;;
14592;SDS011;7383;52.354;9.756;2023-02-26T16:32:59;0.90;;;0.63;;
14592;SDS011;7383;52.354;9.756;2023-02-26T16:35:27;0.73;;;0.70;;
14592;SDS011;7383;52.354;9.756;2023-02-26T16:37:59;1.17;;;0.57;;
14592;SDS011;7383;52.354;9.756;2023-02-26T16:40:37;0.60;;;0.60;;
14592;SDS011;7383;52.354;9.756;2023-02-26T16:43:28;0.65;;;0.65;;
14592;SDS011;7383;52.354;9.756;2023-02-26T16:46:02;0.80;;;0.80;;
14592;SDS011;7383;52.354;9.756;2023-02-26T16:48:47;1.00;;;0.90;;
14592;SDS011;7383;52.354;9.756;2023-02-26T16:51:18;0.75;;;0.75;;
14592;SDS011;7383;52.354;9.756;2023-02-26T16:53:47;0.73;;;0.73;;
14592;SDS011;7383;52.354;9.756;2023-02-26T16:56:16;0.70;;;0.70;;
14592;SDS011;7383;52.354;9.756;2023-02-26T16:58:44;0.98;;;0.80;;
14592;SDS011;7383;52.354;9.756;2023-02-26T17:01:15;0.90;;;0.90;;
14592;SDS011;7383;52.354;9.756;2023-02-26T17:03:44;0.95;;;0.95;;
14592;SDS011;7383;52.354;9.756;2023-02-26T17:06:14;1.40;;;1.30;;
14592;SDS011;7383;52.354;9.756;2023-02-26T17:08:45;0.85;;;0.85;;
14592;SDS011;7383;52.354;9.756;2023-02-26T17:11:17;1.05;;;1.05;;
14592;SDS011;7383;52.354;9.756;2023-02-26T17:13:56;0.82;;;0.82;;
14592;SDS011;7383;52.354;9.756;2023-02-26T17:16:29;1.13;;;1.00;;
14592;SDS011;7383;52.354;9.756;2023-02-26T17:18:56;1.00;;;1.00;;
14592;SDS011;7383;52.354;9.756;2023-02-26T17:21:22;1.10;;;1.10;;
14592;SDS011;7383;52.354;9.756;2023-02-26T17:23:51;1.30;;;1.20;;
14592;SDS011;7383;52.354;9.756;2023-02-26T17:26:17;1.33;;;1.02;;
14592;SDS011;7383;52.354;9.756;2023-02-26T17:28:44;1.80;;;1.40;;
14592;SDS011;7383;52.354;9.756;2023-02-26T17:31:10;1.27;;;1.23;;
14592;SDS011;7383;52.354;9.756;2023-02-26T17:33:40;2.03;;;1.40;;
14592;SDS011;7383;52.354;9.756;2023-02-26T17:36:09;1.23;;;1.13;;
14592;SDS011;7383;52.354;9.756;2023-02-26T17:38:39;1.15;;;1.10;;
14592;SDS011;7383;52.354;9.756;2023-02-26T17:41:06;1.67;;;1.20;;
14592;SDS011;7383;52.354;9.756;2023-02-26T17:43:35;1.33;;;1.23;;
14592;SDS011;7383;52.354;9.756;2023-02-26T17:46:03;1.38;;;0.93;;
14592;SDS011;7383;52.354;9.756;2023-02-26T17:48:29;1.13;;;1.10;;
14592;SDS011;7383;52.354;9.756;2023-02-26T17:50:57;1.50;;;1.30;;
14592;SDS011;7383;52.354;9.756;2023-02-26T17:53:25;1.13;;;1.02;;
14592;SDS011;7383;52.354;9.756;2023-02-26T17:55:52;1.25;;;1.15;;
14592;SDS011;7383;52.354;9.756;2023-02-26T17:58:21;1.35;;;1.17;;
14592;SDS011;7383;52.354;9.756;2023-02-26T18:00:51;1.10;;;1.00;;
14592;SDS011;7383;52.354;9.756;2023-02-26T18:03:18;1.00;;;1.00;;
14592;SDS011;7383;52.354;9.756;2023-02-26T18:05:45;1.20;;;1.10;;
14592;SDS011;7383;52.354;9.756;2023-02-26T18:08:15;1.42;;;1.27;;
14592;SDS011;7383;52.354;9.756;2023-02-26T18:10:45;1.00;;;1.00;;
14592;SDS011;7383;52.354;9.756;2023-02-26T18:13:12;1.70;;;1.15;;
14592;SDS011;7383;52.354;9.756;2023-02-26T18:15:38;1.58;;;1.48;;
14592;SDS011;7383;52.354;9.756;2023-02-26T18:18:05;1.40;;;1.30;;
14592;SDS011;7383;52.354;9.756;2023-02-26T18:20:34;1.70;;;1.60;;
14592;SDS011;7383;52.354;9.756;2023-02-26T18:23:00;1.85;;;1.70;;
14592;SDS011;7383;52.354;9.756;2023-02-26T18:25:28;1.40;;;1.30;;
14592;SDS011;7383;52.354;9.756;2023-02-26T18:27:54;1.70;;;1.60;;
14592;SDS011;7383;52.354;9.756;2023-02-26T18:30:25;3.72;;;2.20;;
14592;SDS011;7383;52.354;9.756;2023-02-26T18:33:04;2.05;;;1.67;;
14592;SDS011;7383;52.354;9.756;2023-02-26T18:35:30;1.98;;;1.85;;
14592;SDS011;7383;52.354;9.756;2023-02-26T18:37:58;1.50;;;1.40;;
14592;SDS011;7383;52.354;9.756;2023-02-26T18:40:25;1.80;;;1.70;;
14592;SDS011;7383;52.354;9.756;2023-02-26T18:42:53;1.92;;;1.80;;
14592;SDS011;7383;52.354;9.756;2023-02-26T18:45:20;2.42;;;2.20;;
14592;SDS011;7383;52.354;9.756;2023-02-26T18:47:47;2.20;;;2.00;;
14592;SDS011;7383;52.354;9.756;2023-02-26T18:50:14;2.15;;;1.95;;
14592;SDS011;7383;52.354;9.756;2023-02-26T18:52:42;2.00;;;1.80;;
14592;SDS011;7383;52.354;9.756;2023-02-26T18:55:09;1.92;;;1.83;;
14592;SDS011;7383;52.354;9.756;2023-02-26T18:57:37;1.92;;;1.83;;
14592;SDS011;7383;52.354;9.756;2023-02-26T19:00:06;2.10;;;1.90;;
14592;SDS011;7383;52.354;9.756;2023-02-26T19:02:34;1.88;;;1.70;;
14592;SDS011;7383;52.354;9.756;2023-02-26T19:05:01;2.58;;;1.85;;
14592;SDS011;7383;52.354;9.756;2023-02-26T19:07:27;1.67;;;1.58;;
14592;SDS011;7383;52.354;9.756;2023-02-26T19:09:54;1.80;;;1.52;;
14592;SDS011;7383;52.354;9.756;2023-02-26T19:12:20;1.90;;;1.80;;
14592;SDS011;7383;52.354;9.756;2023-02-26T19:14:48;1.98;;;1.80;;
14592;SDS011;7383;52.354;9.756;2023-02-26T19:17:16;2.17;;;1.92;;
14592;SDS011;7383;52.354;9.756;2023-02-26T19:19:43;2.35;;;2.15;;
14592;SDS011;7383;52.354;9.756;2023-02-26T19:22:10;2.00;;;1.77;;
14592;SDS011;7383;52.354;9.756;2023-02-26T19:24:39;1.95;;;1.73;;
14592;SDS011;7383;52.354;9.756;2023-02-26T19:27:06;2.38;;;1.90;;
14592;SDS011;7383;52.354;9.756;2023-02-26T19:29:35;2.05;;;1.95;;
14592;SDS011;7383;52.354;9.756;2023-02-26T19:32:03;2.22;;;1.80;;
14592;SDS011;7383;52.354;9.756;2023-02-26T19:34:32;1.80;;;1.70;;
14592;SDS011;7383;52.354;9.756;2023-02-26T19:36:59;1.90;;;1.80;;
14592;SDS011;7383;52.354;9.756;2023-02-26T19:39:26;1.88;;;1.77;;
14592;SDS011;7383;52.354;9.756;2023-02-26T19:41:53;2.00;;;1.80;;
14592;SDS011;7383;52.354;9.756;2023-02-26T19:44:20;2.20;;;2.00;;
14592;SDS011;7383;52.354;9.756;2023-02-26T19:46:47;2.65;;;1.77;;
14592;SDS011;7383;52.354;9.756;2023-02-26T19:49:15;2.00;;;1.80;;
14592;SDS011;7383;52.354;9.756;2023-02-26T19:51:43;1.77;;;1.67;;